Time;durP1;ratioP1;P1;durP2;ratioP2;P2;SDS_P1;SDS_P2;PMS_P1;PMS_P2;Temp;Humidity;BMP_temperature;BMP_pressure;BME280_temperature;BME280_humidity;BME280_pressure;Samples;Min_cycle;Max_cycle;Signal;HPM_P1;HPM_P2
2022/06/02 00:02:30;;;;;;;;;4.00;2.33;;;;;19.74;36.41;101342.69;5051469;28;45567;-79
2022/06/02 00:05:26;;;;;;;;;2.33;2.33;;;;;19.61;36.48;101362.53;5041944;28;45150;-79
2022/06/02 00:08:12;;;;;;;;;5.00;4.00;;;;;19.54;36.65;101353.81;5040636;28;45649;-81
2022/06/02 00:11:06;;;;;;;;;2.00;2.00;;;;;19.54;36.59;101358.28;5041871;28;46213;-81
2022/06/02 00:13:41;;;;;;;;;2.67;2.67;;;;;19.45;37.08;101346.09;5038788;28;45639;-81
2022/06/02 00:16:14;;;;;;;;;2.00;2.00;;;;;19.47;36.90;101369.03;5037450;28;45406;-68
2022/06/02 00:18:51;;;;;;;;;2.00;2.00;;;;;19.39;37.12;101363.06;5044677;28;45526;-78
2022/06/02 00:21:45;;;;;;;;;2.67;2.67;;;;;19.33;37.17;101370.31;5037660;28;46624;-76
2022/06/02 00:24:30;;;;;;;;;2.00;2.00;;;;;19.30;37.16;101368.59;5021859;28;45406;-72
2022/06/02 00:27:21;;;;;;;;;2.00;2.00;;;;;19.11;37.22;101330.13;5046610;28;45343;-76
2022/06/02 00:30:11;;;;;;;;;1.00;1.00;;;;;19.31;37.48;101372.97;5041142;28;45217;-76
2022/06/02 00:32:43;;;;;;;;;2.00;2.00;;;;;19.22;37.49;101375.84;5033725;28;47864;-75
2022/06/02 00:35:30;;;;;;;;;3.33;3.00;;;;;19.22;37.35;101386.47;5046763;28;45315;-78
2022/06/02 00:38:03;;;;;;;;;2.33;2.33;;;;;19.11;37.82;101378.78;5036216;28;45485;-79
2022/06/02 00:40:32;;;;;;;;;3.67;3.00;;;;;18.94;37.93;101344.66;5041522;28;45498;-75
2022/06/02 00:43:13;;;;;;;;;3.00;3.00;;;;;19.11;37.83;101377.91;5046257;28;45380;-81
2022/06/02 00:45:44;;;;;;;;;3.00;3.00;;;;;18.99;37.84;101379.06;5040193;28;45313;-78
2022/06/02 00:48:37;;;;;;;;;5.00;4.00;;;;;18.83;38.33;101386.50;5034651;28;45393;-79
2022/06/02 00:51:06;;;;;;;;;4.00;3.00;;;;;18.67;38.67;101372.63;5039724;28;45702;-79
2022/06/02 00:57:31;;;;;;;;;6.00;4.00;;;;;18.58;38.80;101376.38;5039534;28;45395;-71
2022/06/02 01:00:19;;;;;;;;;6.00;4.00;;;;;18.39;39.43;101369.72;5039293;28;45421;-79
2022/06/02 01:02:53;;;;;;;;;4.00;4.00;;;;;18.17;39.36;101353.34;5052438;28;45497;-79
2022/06/02 01:05:26;;;;;;;;;4.33;4.00;;;;;18.23;39.58;101374.44;5056378;28;46176;-81
2022/06/02 01:07:55;;;;;;;;;6.67;4.00;;;;;18.28;39.49;101369.91;5038959;28;45612;-78
2022/06/02 01:10:29;;;;;;;;;5.00;3.00;;;;;18.28;39.60;101364.59;5045959;28;45477;-79
2022/06/02 01:13:10;;;;;;;;;2.33;2.33;;;;;18.39;39.38;101372.38;5042373;28;45565;-79
2022/06/02 01:15:54;;;;;;;;;2.67;2.67;;;;;18.39;39.61;101370.56;5061800;28;46092;-81
2022/06/02 01:18:38;;;;;;;;;5.00;4.33;;;;;18.34;39.64;101367.16;5059922;28;45312;-81
2022/06/02 01:21:28;;;;;;;;;4.67;4.67;;;;;18.35;40.05;101362.72;5059915;28;45316;-79
2022/06/02 01:24:12;;;;;;;;;6.00;3.67;;;;;18.34;39.73;101366.25;5059672;28;45471;-81
2022/06/02 01:27:05;;;;;;;;;4.00;4.00;;;;;18.18;39.97;101371.88;5059929;28;45501;-80
2022/06/02 01:29:57;;;;;;;;;4.00;4.00;;;;;18.02;40.33;101350.06;5042352;28;45498;-81
2022/06/02 01:32:45;;;;;;;;;6.67;4.00;;;;;18.14;40.77;101371.97;5060224;28;45271;-80
2022/06/02 01:35:52;;;;;;;;;4.00;4.00;;;;;18.01;41.21;101366.03;5059889;28;45499;-74
2022/06/02 01:38:30;;;;;;;;;4.00;3.00;;;;;17.85;40.63;101341.59;5058607;28;46643;-81
2022/06/02 01:41:18;;;;;;;;;6.33;3.33;;;;;18.01;40.82;101360.72;5059264;28;45402;-81
2022/06/02 01:43:54;;;;;;;;;3.00;3.00;;;;;17.98;41.18;101363.41;5032817;28;45418;-80
2022/06/02 01:46:38;;;;;;;;;3.00;3.00;;;;;17.97;40.85;101365.19;5053497;28;45284;-79
2022/06/02 01:49:09;;;;;;;;;3.00;3.00;;;;;17.99;40.91;101375.78;5059245;28;46599;-81
2022/06/02 01:51:44;;;;;;;;;5.67;3.00;;;;;18.04;40.87;101376.56;5059529;28;45345;-79
2022/06/02 01:54:15;;;;;;;;;6.00;3.33;;;;;18.01;40.69;101380.16;5060052;28;45460;-75
2022/06/02 01:57:09;;;;;;;;;4.00;3.00;;;;;17.93;40.88;101365.28;5063544;28;45489;-74
2022/06/02 01:59:55;;;;;;;;;3.33;3.00;;;;;18.02;41.11;101381.00;5053649;28;46854;-79
2022/06/02 02:02:33;;;;;;;;;4.00;4.00;;;;;17.93;41.21;101384.69;5058792;28;45530;-74
2022/06/02 02:05:39;;;;;;;;;5.00;5.00;;;;;17.86;41.21;101377.75;5060813;28;46146;-79
2022/06/02 02:08:17;;;;;;;;;3.00;3.00;;;;;17.86;41.46;101377.75;5063309;28;45571;-77
2022/06/02 02:10:52;;;;;;;;;3.00;3.00;;;;;17.91;41.19;101377.69;5043857;28;46538;-69
2022/06/02 02:13:42;;;;;;;;;3.00;3.00;;;;;17.97;40.84;101373.16;5062493;28;45367;-80
2022/06/02 02:16:40;;;;;;;;;3.00;3.00;;;;;18.04;41.09;101376.56;5060954;28;45888;-76
2022/06/02 02:19:36;;;;;;;;;3.00;3.00;;;;;17.99;41.11;101375.78;5066061;28;45370;-71
2022/06/02 02:22:16;;;;;;;;;3.00;3.00;;;;;18.04;40.88;101376.56;5062404;28;45375;-77
2022/06/02 02:25:02;;;;;;;;;3.33;3.33;;;;;18.10;40.87;101370.25;5060060;28;45518;-78
2022/06/02 02:30:31;;;;;;;;;4.67;3.33;;;;;18.01;41.12;101353.66;5060460;28;45929;-77
2022/06/02 02:32:57;;;;;;;;;4.00;3.33;;;;;17.99;41.20;101366.03;5052365;28;46172;-73
2022/06/02 02:35:39;;;;;;;;;5.00;5.00;;;;;17.94;41.38;101367.03;5065757;28;45355;-73
2022/06/02 02:38:08;;;;;;;;;5.33;5.33;;;;;17.58;41.51;101308.47;5067524;28;45431;-71
2022/06/02 02:40:46;;;;;;;;;4.00;4.00;;;;;17.91;41.03;101353.84;5048896;28;45643;-74
2022/06/02 02:43:44;;;;;;;;;4.33;4.00;;;;;18.00;41.08;101346.56;5063746;28;46169;-73
2022/06/02 02:46:27;;;;;;;;;5.33;4.33;;;;;17.98;41.35;101355.47;5063717;28;45299;-75
2022/06/02 02:49:37;;;;;;;;;5.00;5.00;;;;;17.91;41.44;101359.13;5066931;28;45301;-79
2022/06/02 02:52:27;;;;;;;;;9.00;6.00;;;;;17.81;41.51;101374.31;5022751;28;45595;-74
2022/06/02 02:55:17;;;;;;;;;6.33;6.33;;;;;17.69;41.39;101377.16;5054298;28;45614;-74
2022/06/02 02:57:58;;;;;;;;;4.00;4.00;;;;;17.62;41.57;101356.97;5062203;28;45434;-73
2022/06/02 03:00:33;;;;;;;;;3.00;3.00;;;;;17.66;41.96;101356.03;5043112;28;45407;-69
2022/06/02 03:03:12;;;;;;;;;6.00;5.00;;;;;17.63;41.98;101367.56;5048293;28;45450;-75
2022/06/02 03:05:51;;;;;;;;;4.00;4.00;;;;;17.43;41.72;101330.81;5061731;28;46430;-72
2022/06/02 03:08:44;;;;;;;;;5.67;5.67;;;;;17.66;41.91;101378.09;5039391;28;45639;-71
2022/06/02 03:11:53;;;;;;;;;6.00;4.00;;;;;17.60;41.71;101371.09;5058358;28;45449;-73
2022/06/02 03:14:28;;;;;;;;;7.33;5.00;;;;;17.73;41.75;101362.97;5031889;28;45281;-70
2022/06/02 03:17:03;;;;;;;;;6.00;4.67;;;;;17.59;41.48;101334.94;5061704;28;46233;-78
2022/06/02 03:19:37;;;;;;;;;6.00;6.00;;;;;17.40;42.08;101308.81;5062274;28;45506;-72
2022/06/02 03:22:29;;;;;;;;;7.00;7.00;;;;;17.51;42.60;101370.38;5061601;28;45434;-71
2022/06/02 03:25:02;;;;;;;;;4.67;4.67;;;;;17.41;42.25;101368.81;5014848;28;45484;-72
2022/06/02 03:27:43;;;;;;;;;6.00;6.00;;;;;17.11;42.56;101334.00;5062111;28;45429;-73
2022/06/02 03:30:22;;;;;;;;;5.00;5.00;;;;;17.12;43.08;101341.03;5062321;28;45441;-75
2022/06/02 03:33:04;;;;;;;;;4.00;4.00;;;;;17.10;42.57;101335.75;5042314;28;45675;-69
2022/06/02 03:35:42;;;;;;;;;4.33;4.33;;;;;17.29;42.62;101370.72;5058668;28;45421;-75
2022/06/02 03:38:27;;;;;;;;;6.00;6.00;;;;;17.34;42.58;101386.56;5058984;28;46112;-76
2022/06/02 03:41:17;;;;;;;;;4.33;4.33;;;;;17.18;42.89;101351.53;5058461;28;45601;-73
2022/06/02 03:44:03;;;;;;;;;8.33;8.00;;;;;17.25;42.57;101377.00;5030205;28;45527;-78
2022/06/02 03:47:00;;;;;;;;;5.67;5.67;;;;;17.17;42.94;101390.31;5049353;28;45485;-77
2022/06/02 03:49:50;;;;;;;;;8.00;6.00;;;;;17.14;43.08;101393.03;5058244;28;45505;-74
2022/06/02 03:52:46;;;;;;;;;6.33;6.00;;;;;17.07;42.84;101385.22;5059174;28;45314;-82
2022/06/02 03:55:33;;;;;;;;;9.33;6.00;;;;;17.15;42.96;101384.19;5040006;28;45390;-76
2022/06/02 03:58:22;;;;;;;;;5.00;4.00;;;;;17.18;43.09;101388.59;5045268;28;45418;-75
2022/06/02 04:01:04;;;;;;;;;7.33;7.33;;;;;17.14;43.23;101382.44;5057809;28;46316;-73
2022/06/02 04:03:46;;;;;;;;;7.00;6.33;;;;;17.05;42.98;101363.19;5039252;28;45251;-73
2022/06/02 04:06:40;;;;;;;;;11.33;8.00;;;;;16.94;43.33;101372.16;5057604;28;45700;-73
2022/06/02 04:09:12;;;;;;;;;8.33;6.33;;;;;16.99;43.64;101384.44;5042750;28;45549;-73
2022/06/02 04:15:14;;;;;;;;;6.00;5.33;;;;;16.99;43.49;101384.44;5057800;28;45557;-79
2022/06/02 04:17:45;;;;;;;;;9.33;7.67;;;;;17.02;43.43;101389.69;5039545;28;45383;-78
2022/06/02 04:20:34;;;;;;;;;6.33;6.33;;;;;16.97;43.63;101396.84;5039721;28;45981;-76
2022/06/02 04:23:37;;;;;;;;;6.00;6.00;;;;;16.97;43.24;101408.28;5056668;28;45476;-77
2022/06/02 04:26:17;;;;;;;;;6.33;4.00;;;;;17.02;44.16;101403.81;5056250;28;45422;-72
2022/06/02 04:29:01;;;;;;;;;9.33;7.67;;;;;16.80;44.03;101354.72;5052775;28;45486;-76
2022/06/02 04:31:54;;;;;;;;;6.00;6.00;;;;;16.84;44.56;101381.09;5036973;28;45429;-73
2022/06/02 04:34:24;;;;;;;;;7.67;7.00;;;;;17.05;43.68;101410.81;5039119;28;48165;-76
2022/06/02 04:37:19;;;;;;;;;8.33;8.33;;;;;17.12;43.44;101412.47;5056461;28;45326;-70
2022/06/02 04:39:57;;;;;;;;;8.67;7.33;;;;;17.19;43.71;101423.88;5028783;28;45645;-77
